sensor_id;sensor_type;location;lat;lon;timestamp;P1;durP1;ratioP1;P2;durP2;ratioP2
77012;SDS011;67260;53.130;17.982;2023-06-14T00:01:24;7.20;;;4.20;;
77012;SDS011;67260;53.130;17.982;2023-06-14T00:03:57;8.60;;;4.50;;
77012;SDS011;67260;53.130;17.982;2023-06-14T00:06:31;8.70;;;4.40;;
77012;SDS011;67260;53.130;17.982;2023-06-14T00:09:00;13.50;;;4.60;;
77012;SDS011;67260;53.130;17.982;2023-06-14T00:11:27;10.20;;;5.00;;
77012;SDS011;67260;53.130;17.982;2023-06-14T00:13:59;8.20;;;4.40;;
77012;SDS011;67260;53.130;17.982;2023-06-14T00:16:27;10.50;;;4.90;;
77012;SDS011;67260;53.130;17.982;2023-06-14T00:18:53;8.10;;;4.50;;
77012;SDS011;67260;53.130;17.982;2023-06-14T00:21:20;10.20;;;4.90;;
77012;SDS011;67260;53.130;17.982;2023-06-14T00:23:47;9.30;;;4.80;;
77012;SDS011;67260;53.130;17.982;2023-06-14T00:26:14;8.60;;;5.10;;
77012;SDS011;67260;53.130;17.982;2023-06-14T00:28:42;8.70;;;4.80;;
77012;SDS011;67260;53.130;17.982;2023-06-14T00:31:11;9.50;;;4.40;;
77012;SDS011;67260;53.130;17.982;2023-06-14T00:33:38;9.00;;;4.30;;
77012;SDS011;67260;53.130;17.982;2023-06-14T00:36:05;6.90;;;4.60;;
77012;SDS011;67260;53.130;17.982;2023-06-14T00:38:32;7.90;;;4.30;;
77012;SDS011;67260;53.130;17.982;2023-06-14T00:41:00;8.50;;;4.10;;
77012;SDS011;67260;53.130;17.982;2023-06-14T00:43:27;5.90;;;3.90;;
77012;SDS011;67260;53.130;17.982;2023-06-14T00:45:53;7.30;;;4.40;;
77012;SDS011;67260;53.130;17.982;2023-06-14T00:48:20;5.70;;;3.70;;
77012;SDS011;67260;53.130;17.982;2023-06-14T00:50:49;6.40;;;4.00;;
77012;SDS011;67260;53.130;17.982;2023-06-14T00:53:17;5.50;;;3.30;;
77012;SDS011;67260;53.130;17.982;2023-06-14T00:55:45;8.20;;;3.60;;
77012;SDS011;67260;53.130;17.982;2023-06-14T00:58:13;5.50;;;3.40;;
77012;SDS011;67260;53.130;17.982;2023-06-14T01:00:42;7.00;;;3.50;;
77012;SDS011;67260;53.130;17.982;2023-06-14T01:03:09;7.20;;;3.60;;
77012;SDS011;67260;53.130;17.982;2023-06-14T01:05:40;10.30;;;3.50;;
77012;SDS011;67260;53.130;17.982;2023-06-14T01:11:02;9.10;;;4.30;;
77012;SDS011;67260;53.130;17.982;2023-06-14T01:13:35;8.40;;;4.40;;
77012;SDS011;67260;53.130;17.982;2023-06-14T01:16:05;10.90;;;4.60;;
77012;SDS011;67260;53.130;17.982;2023-06-14T01:18:34;11.60;;;5.40;;
77012;SDS011;67260;53.130;17.982;2023-06-14T01:21:02;10.20;;;4.70;;
77012;SDS011;67260;53.130;17.982;2023-06-14T01:23:32;12.50;;;5.60;;
77012;SDS011;67260;53.130;17.982;2023-06-14T01:25:59;8.80;;;5.40;;
77012;SDS011;67260;53.130;17.982;2023-06-14T01:28:31;12.90;;;6.70;;
77012;SDS011;67260;53.130;17.982;2023-06-14T01:31:01;11.40;;;6.90;;
77012;SDS011;67260;53.130;17.982;2023-06-14T01:33:33;13.00;;;7.40;;
77012;SDS011;67260;53.130;17.982;2023-06-14T01:36:02;14.10;;;7.70;;
77012;SDS011;67260;53.130;17.982;2023-06-14T01:38:31;13.50;;;7.80;;
77012;SDS011;67260;53.130;17.982;2023-06-14T01:40:59;15.40;;;8.30;;
77012;SDS011;67260;53.130;17.982;2023-06-14T01:43:29;17.10;;;8.40;;
77012;SDS011;67260;53.130;17.982;2023-06-14T01:45:57;14.50;;;8.60;;
77012;SDS011;67260;53.130;17.982;2023-06-14T01:48:27;15.20;;;7.60;;
77012;SDS011;67260;53.130;17.982;2023-06-14T01:50:54;11.30;;;7.50;;
77012;SDS011;67260;53.130;17.982;2023-06-14T01:53:21;13.60;;;7.70;;
77012;SDS011;67260;53.130;17.982;2023-06-14T01:55:48;15.60;;;7.70;;
77012;SDS011;67260;53.130;17.982;2023-06-14T02:01:07;13.20;;;7.60;;
77012;SDS011;67260;53.130;17.982;2023-06-14T02:03:34;11.70;;;7.60;;
77012;SDS011;67260;53.130;17.982;2023-06-14T02:06:04;12.80;;;7.20;;
77012;SDS011;67260;53.130;17.982;2023-06-14T02:08:31;11.90;;;7.10;;
77012;SDS011;67260;53.130;17.982;2023-06-14T02:11:00;12.80;;;7.10;;
77012;SDS011;67260;53.130;17.982;2023-06-14T02:13:28;11.90;;;7.10;;
77012;SDS011;67260;53.130;17.982;2023-06-14T02:15:55;11.80;;;6.80;;
77012;SDS011;67260;53.130;17.982;2023-06-14T02:21:39;10.80;;;6.60;;
77012;SDS011;67260;53.130;17.982;2023-06-14T02:37:01;10.70;;;6.50;;
77012;SDS011;67260;53.130;17.982;2023-06-14T02:45:17;13.90;;;6.20;;
77012;SDS011;67260;53.130;17.982;2023-06-14T02:47:43;8.90;;;5.70;;
77012;SDS011;67260;53.130;17.982;2023-06-14T02:57:40;10.50;;;5.70;;
77012;SDS011;67260;53.130;17.982;2023-06-14T03:00:11;10.90;;;5.50;;
77012;SDS011;67260;53.130;17.982;2023-06-14T03:03:00;13.10;;;5.50;;
77012;SDS011;67260;53.130;17.982;2023-06-14T03:05:28;12.30;;;6.10;;
77012;SDS011;67260;53.130;17.982;2023-06-14T03:07:54;9.70;;;6.30;;
77012;SDS011;67260;53.130;17.982;2023-06-14T03:10:20;10.40;;;6.30;;
77012;SDS011;67260;53.130;17.982;2023-06-14T03:12:48;9.70;;;5.80;;
77012;SDS011;67260;53.130;17.982;2023-06-14T03:15:15;14.40;;;5.70;;
77012;SDS011;67260;53.130;17.982;2023-06-14T03:17:45;15.00;;;6.70;;
77012;SDS011;67260;53.130;17.982;2023-06-14T03:20:11;12.10;;;7.60;;
77012;SDS011;67260;53.130;17.982;2023-06-14T03:26:06;18.20;;;9.30;;
77012;SDS011;67260;53.130;17.982;2023-06-14T03:28:33;15.90;;;9.60;;
77012;SDS011;67260;53.130;17.982;2023-06-14T03:31:00;18.50;;;10.20;;
77012;SDS011;67260;53.130;17.982;2023-06-14T03:33:28;17.60;;;9.50;;
77012;SDS011;67260;53.130;17.982;2023-06-14T03:38:22;18.60;;;9.20;;
77012;SDS011;67260;53.130;17.982;2023-06-14T03:40:48;16.70;;;8.30;;
77012;SDS011;67260;53.130;17.982;2023-06-14T03:43:15;15.20;;;8.50;;
77012;SDS011;67260;53.130;17.982;2023-06-14T03:45:41;12.60;;;7.80;;
77012;SDS011;67260;53.130;17.982;2023-06-14T03:48:08;14.40;;;7.80;;
77012;SDS011;67260;53.130;17.982;2023-06-14T03:50:35;12.30;;;7.90;;
77012;SDS011;67260;53.130;17.982;2023-06-14T03:53:06;13.40;;;7.10;;
77012;SDS011;67260;53.130;17.982;2023-06-14T03:55:33;14.00;;;7.40;;
77012;SDS011;67260;53.130;17.982;2023-06-14T03:57:59;12.30;;;6.60;;
77012;SDS011;67260;53.130;17.982;2023-06-14T04:00:25;11.10;;;6.70;;
77012;SDS011;67260;53.130;17.982;2023-06-14T04:02:52;9.70;;;6.00;;
77012;SDS011;67260;53.130;17.982;2023-06-14T04:05:19;10.80;;;6.50;;
77012;SDS011;67260;53.130;17.982;2023-06-14T04:07:48;11.80;;;6.60;;
77012;SDS011;67260;53.130;17.982;2023-06-14T04:10:16;11.00;;;5.60;;
77012;SDS011;67260;53.130;17.982;2023-06-14T04:12:42;15.60;;;6.10;;
77012;SDS011;67260;53.130;17.982;2023-06-14T04:15:08;10.20;;;5.80;;
77012;SDS011;67260;53.130;17.982;2023-06-14T04:17:36;12.90;;;6.10;;
77012;SDS011;67260;53.130;17.982;2023-06-14T04:20:03;12.90;;;6.10;;
77012;SDS011;67260;53.130;17.982;2023-06-14T04:22:33;11.10;;;6.10;;
77012;SDS011;67260;53.130;17.982;2023-06-14T04:25:00;11.10;;;5.80;;
77012;SDS011;67260;53.130;17.982;2023-06-14T04:27:27;11.10;;;5.50;;
77012;SDS011;67260;53.130;17.982;2023-06-14T04:29:56;9.90;;;5.50;;
77012;SDS011;67260;53.130;17.982;2023-06-14T04:32:25;10.00;;;5.60;;
77012;SDS011;67260;53.130;17.982;2023-06-14T04:34:56;9.30;;;5.60;;
77012;SDS011;67260;53.130;17.982;2023-06-14T04:37:23;11.00;;;5.60;;
77012;SDS011;67260;53.130;17.982;2023-06-14T04:39:49;11.90;;;5.50;;
77012;SDS011;67260;53.130;17.982;2023-06-14T04:42:16;10.80;;;5.50;;
77012;SDS011;67260;53.130;17.982;2023-06-14T04:44:43;10.30;;;5.40;;
77012;SDS011;67260;53.130;17.982;2023-06-14T04:47:12;8.40;;;5.10;;
77012;SDS011;67260;53.130;17.982;2023-06-14T04:49:41;11.80;;;5.70;;
77012;SDS011;67260;53.130;17.982;2023-06-14T04:52:07;14.70;;;6.00;;
77012;SDS011;67260;53.130;17.982;2023-06-14T04:54:40;12.20;;;5.60;;
77012;SDS011;67260;53.130;17.982;2023-06-14T04:57:09;9.70;;;5.70;;
77012;SDS011;67260;53.130;17.982;2023-06-14T04:59:40;13.70;;;5.90;;
77012;SDS011;67260;53.130;17.982;2023-06-14T05:02:07;11.30;;;5.60;;
77012;SDS011;67260;53.130;17.982;2023-06-14T05:04:34;9.90;;;5.50;;
77012;SDS011;67260;53.130;17.982;2023-06-14T05:07:08;11.10;;;5.30;;
77012;SDS011;67260;53.130;17.982;2023-06-14T05:09:35;9.10;;;5.50;;
77012;SDS011;67260;53.130;17.982;2023-06-14T05:12:02;10.30;;;5.40;;
77012;SDS011;67260;53.130;17.982;2023-06-14T05:14:29;9.10;;;5.40;;
77012;SDS011;67260;53.130;17.982;2023-06-14T05:16:56;10.30;;;5.50;;
77012;SDS011;67260;53.130;17.982;2023-06-14T05:19:23;10.30;;;4.90;;
77012;SDS011;67260;53.130;17.982;2023-06-14T05:21:49;11.90;;;5.30;;
77012;SDS011;67260;53.130;17.982;2023-06-14T05:24:15;8.80;;;4.70;;
77012;SDS011;67260;53.130;17.982;2023-06-14T05:26:43;8.00;;;5.00;;
77012;SDS011;67260;53.130;17.982;2023-06-14T05:29:09;10.20;;;5.40;;
77012;SDS011;67260;53.130;17.982;2023-06-14T05:31:38;12.10;;;6.40;;
77012;SDS011;67260;53.130;17.982;2023-06-14T05:34:04;11.40;;;5.70;;
77012;SDS011;67260;53.130;17.982;2023-06-14T05:36:30;9.80;;;5.60;;
77012;SDS011;67260;53.130;17.982;2023-06-14T05:38:56;9.90;;;5.90;;
77012;SDS011;67260;53.130;17.982;2023-06-14T05:41:25;13.40;;;6.20;;
77012;SDS011;67260;53.130;17.982;2023-06-14T05:43:53;9.70;;;6.20;;
77012;SDS011;67260;53.130;17.982;2023-06-14T05:46:20;12.20;;;6.30;;
77012;SDS011;67260;53.130;17.982;2023-06-14T05:48:51;13.90;;;6.70;;
77012;SDS011;67260;53.130;17.982;2023-06-14T05:51:17;11.90;;;6.20;;
77012;SDS011;67260;53.130;17.982;2023-06-14T05:53:46;12.20;;;5.60;;
77012;SDS011;67260;53.130;17.982;2023-06-14T05:56:13;12.40;;;5.80;;
77012;SDS011;67260;53.130;17.982;2023-06-14T05:58:40;11.70;;;5.60;;
77012;SDS011;67260;53.130;17.982;2023-06-14T06:01:06;11.90;;;5.60;;
77012;SDS011;67260;53.130;17.982;2023-06-14T06:03:33;9.40;;;5.10;;
77012;SDS011;67260;53.130;17.982;2023-06-14T06:05:59;10.40;;;4.60;;
77012;SDS011;67260;53.130;17.982;2023-06-14T06:08:26;10.50;;;5.00;;
77012;SDS011;67260;53.130;17.982;2023-06-14T06:10:54;13.90;;;4.90;;
77012;SDS011;67260;53.130;17.982;2023-06-14T06:13:20;9.10;;;4.70;;
77012;SDS011;67260;53.130;17.982;2023-06-14T06:15:46;9.70;;;4.60;;
77012;SDS011;67260;53.130;17.982;2023-06-14T06:20:38;9.40;;;4.20;;
77012;SDS011;67260;53.130;17.982;2023-06-14T06:23:04;9.50;;;4.10;;
77012;SDS011;67260;53.130;17.982;2023-06-14T06:27:57;8.50;;;4.20;;
77012;SDS011;67260;53.130;17.982;2023-06-14T06:30:24;8.90;;;4.00;;
77012;SDS011;67260;53.130;17.982;2023-06-14T06:32:50;11.50;;;4.50;;
77012;SDS011;67260;53.130;17.982;2023-06-14T06:35:17;10.90;;;7.30;;
77012;SDS011;67260;53.130;17.982;2023-06-14T06:37:43;9.70;;;4.90;;
77012;SDS011;67260;53.130;17.982;2023-06-14T06:40:09;11.40;;;4.60;;
77012;SDS011;67260;53.130;17.982;2023-06-14T06:42:36;10.10;;;4.30;;
77012;SDS011;67260;53.130;17.982;2023-06-14T06:45:04;9.80;;;3.70;;
77012;SDS011;67260;53.130;17.982;2023-06-14T06:47:30;10.60;;;4.20;;
77012;SDS011;67260;53.130;17.982;2023-06-14T06:49:57;9.30;;;3.80;;
77012;SDS011;67260;53.130;17.982;2023-06-14T06:52:23;15.60;;;3.90;;
77012;SDS011;67260;53.130;17.982;2023-06-14T06:57:16;9.00;;;3.60;;
77012;SDS011;67260;53.130;17.982;2023-06-14T06:59:45;7.20;;;3.90;;
77012;SDS011;67260;53.130;17.982;2023-06-14T07:02:11;7.90;;;3.80;;
77012;SDS011;67260;53.130;17.982;2023-06-14T07:07:03;10.10;;;4.10;;
77012;SDS011;67260;53.130;17.982;2023-06-14T07:09:36;11.00;;;3.70;;
77012;SDS011;67260;53.130;17.982;2023-06-14T07:12:03;9.40;;;3.70;;
77012;SDS011;67260;53.130;17.982;2023-06-14T07:14:33;10.20;;;3.50;;
77012;SDS011;67260;53.130;17.982;2023-06-14T07:16:59;7.70;;;3.70;;
77012;SDS011;67260;53.130;17.982;2023-06-14T07:19:26;13.70;;;3.90;;
77012;SDS011;67260;53.130;17.982;2023-06-14T07:21:52;12.30;;;3.90;;
77012;SDS011;67260;53.130;17.982;2023-06-14T07:24:21;8.30;;;3.90;;
77012;SDS011;67260;53.130;17.982;2023-06-14T07:26:47;11.70;;;3.90;;
77012;SDS011;67260;53.130;17.982;2023-06-14T07:29:16;11.00;;;4.10;;
77012;SDS011;67260;53.130;17.982;2023-06-14T07:34:09;13.30;;;4.00;;
77012;SDS011;67260;53.130;17.982;2023-06-14T07:36:35;8.90;;;3.90;;
77012;SDS011;67260;53.130;17.982;2023-06-14T07:39:04;10.30;;;4.00;;
77012;SDS011;67260;53.130;17.982;2023-06-14T07:41:32;8.50;;;3.80;;
77012;SDS011;67260;53.130;17.982;2023-06-14T07:44:00;9.40;;;4.00;;
77012;SDS011;67260;53.130;17.982;2023-06-14T07:48:52;7.90;;;5.10;;
77012;SDS011;67260;53.130;17.982;2023-06-14T07:56:54;9.70;;;4.50;;
77012;SDS011;67260;53.130;17.982;2023-06-14T07:59:25;12.30;;;3.90;;
77012;SDS011;67260;53.130;17.982;2023-06-14T08:01:53;8.70;;;4.30;;
77012;SDS011;67260;53.130;17.982;2023-06-14T08:04:19;11.40;;;4.20;;
77012;SDS011;67260;53.130;17.982;2023-06-14T08:06:46;9.20;;;4.20;;
77012;SDS011;67260;53.130;17.982;2023-06-14T08:09:13;7.80;;;3.60;;
77012;SDS011;67260;53.130;17.982;2023-06-14T08:11:44;9.10;;;4.50;;
77012;SDS011;67260;53.130;17.982;2023-06-14T08:16:36;10.80;;;4.20;;
77012;SDS011;67260;53.130;17.982;2023-06-14T08:19:06;9.70;;;4.20;;
77012;SDS011;67260;53.130;17.982;2023-06-14T08:21:37;9.50;;;3.90;;
77012;SDS011;67260;53.130;17.982;2023-06-14T08:24:06;9.80;;;3.80;;
77012;SDS011;67260;53.130;17.982;2023-06-14T08:26:43;7.40;;;3.70;;
77012;SDS011;67260;53.130;17.982;2023-06-14T08:29:11;9.60;;;4.30;;
77012;SDS011;67260;53.130;17.982;2023-06-14T08:32:46;7.30;;;3.50;;
77012;SDS011;67260;53.130;17.982;2023-06-14T08:35:20;10.90;;;3.80;;
77012;SDS011;67260;53.130;17.982;2023-06-14T08:38:09;9.70;;;4.10;;
77012;SDS011;67260;53.130;17.982;2023-06-14T08:40:44;12.10;;;4.50;;
77012;SDS011;67260;53.130;17.982;2023-06-14T08:43:23;8.70;;;3.80;;
77012;SDS011;67260;53.130;17.982;2023-06-14T08:45:53;17.50;;;4.20;;
77012;SDS011;67260;53.130;17.982;2023-06-14T08:48:30;13.70;;;3.90;;
77012;SDS011;67260;53.130;17.982;2023-06-14T08:51:01;7.70;;;4.10;;
77012;SDS011;67260;53.130;17.982;2023-06-14T08:53:30;9.50;;;3.80;;
77012;SDS011;67260;53.130;17.982;2023-06-14T08:56:10;7.70;;;3.60;;
77012;SDS011;67260;53.130;17.982;2023-06-14T09:10:39;8.90;;;3.70;;
77012;SDS011;67260;53.130;17.982;2023-06-14T09:13:07;9.90;;;4.00;;
77012;SDS011;67260;53.130;17.982;2023-06-14T09:15:34;11.20;;;4.30;;
77012;SDS011;67260;53.130;17.982;2023-06-14T09:18:35;10.70;;;4.50;;
77012;SDS011;67260;53.130;17.982;2023-06-14T09:21:12;7.30;;;4.10;;
77012;SDS011;67260;53.130;17.982;2023-06-14T09:23:44;10.40;;;4.10;;
77012;SDS011;67260;53.130;17.982;2023-06-14T09:26:13;8.60;;;4.20;;
77012;SDS011;67260;53.130;17.982;2023-06-14T09:28:42;8.70;;;4.50;;
77012;SDS011;67260;53.130;17.982;2023-06-14T09:31:11;9.60;;;4.40;;
77012;SDS011;67260;53.130;17.982;2023-06-14T09:33:40;10.80;;;4.40;;
77012;SDS011;67260;53.130;17.982;2023-06-14T09:36:09;9.90;;;4.00;;
77012;SDS011;67260;53.130;17.982;2023-06-14T09:38:42;12.30;;;4.40;;
77012;SDS011;67260;53.130;17.982;2023-06-14T09:41:08;12.50;;;5.00;;
77012;SDS011;67260;53.130;17.982;2023-06-14T09:43:35;10.90;;;4.30;;
77012;SDS011;67260;53.130;17.982;2023-06-14T09:46:03;12.60;;;5.10;;
77012;SDS011;67260;53.130;17.982;2023-06-14T09:48:33;7.30;;;4.10;;
77012;SDS011;67260;53.130;17.982;2023-06-14T09:51:01;10.90;;;4.30;;
77012;SDS011;67260;53.130;17.982;2023-06-14T09:53:37;11.70;;;4.40;;
77012;SDS011;67260;53.130;17.982;2023-06-14T09:56:16;14.00;;;4.10;;
77012;SDS011;67260;53.130;17.982;2023-06-14T09:58:56;11.20;;;4.40;;
77012;SDS011;67260;53.130;17.982;2023-06-14T10:07:35;12.50;;;4.20;;
77012;SDS011;67260;53.130;17.982;2023-06-14T10:10:15;10.40;;;4.30;;
77012;SDS011;67260;53.130;17.982;2023-06-14T10:12:48;7.90;;;4.50;;
77012;SDS011;67260;53.130;17.982;2023-06-14T10:15:17;8.70;;;4.00;;
77012;SDS011;67260;53.130;17.982;2023-06-14T10:20:53;14.00;;;4.60;;
77012;SDS011;67260;53.130;17.982;2023-06-14T10:23:33;9.70;;;4.10;;
77012;SDS011;67260;53.130;17.982;2023-06-14T10:26:03;10.30;;;4.10;;
77012;SDS011;67260;53.130;17.982;2023-06-14T10:28:30;11.40;;;4.90;;
77012;SDS011;67260;53.130;17.982;2023-06-14T10:31:09;10.40;;;4.40;;
77012;SDS011;67260;53.130;17.982;2023-06-14T10:36:24;10.90;;;4.40;;
77012;SDS011;67260;53.130;17.982;2023-06-14T10:41:27;8.30;;;3.90;;
77012;SDS011;67260;53.130;17.982;2023-06-14T10:44:44;9.10;;;4.30;;
77012;SDS011;67260;53.130;17.982;2023-06-14T10:46:54;9.60;;;5.00;;
77012;SDS011;67260;53.130;17.982;2023-06-14T10:49:40;9.80;;;4.00;;
77012;SDS011;67260;53.130;17.982;2023-06-14T10:52:14;8.60;;;4.30;;
77012;SDS011;67260;53.130;17.982;2023-06-14T10:55:00;12.00;;;4.20;;
77012;SDS011;67260;53.130;17.982;2023-06-14T10:57:33;9.50;;;4.20;;
77012;SDS011;67260;53.130;17.982;2023-06-14T11:00:06;9.00;;;4.00;;
77012;SDS011;67260;53.130;17.982;2023-06-14T11:03:21;10.80;;;4.40;;
77012;SDS011;67260;53.130;17.982;2023-06-14T11:11:17;10.90;;;4.10;;
77012;SDS011;67260;53.130;17.982;2023-06-14T11:13:46;11.20;;;4.30;;
77012;SDS011;67260;53.130;17.982;2023-06-14T11:16:16;9.60;;;3.80;;
77012;SDS011;67260;53.130;17.982;2023-06-14T11:18:46;10.50;;;4.00;;
77012;SDS011;67260;53.130;17.982;2023-06-14T11:21:17;10.00;;;3.80;;
77012;SDS011;67260;53.130;17.982;2023-06-14T11:23:50;10.30;;;3.90;;
77012;SDS011;67260;53.130;17.982;2023-06-14T11:26:27;11.00;;;3.90;;
77012;SDS011;67260;53.130;17.982;2023-06-14T11:28:59;7.50;;;4.20;;
77012;SDS011;67260;53.130;17.982;2023-06-14T11:31:26;10.80;;;4.00;;
77012;SDS011;67260;53.130;17.982;2023-06-14T11:33:54;11.80;;;4.40;;
77012;SDS011;67260;53.130;17.982;2023-06-14T11:36:23;8.90;;;4.00;;
77012;SDS011;67260;53.130;17.982;2023-06-14T11:41:31;12.00;;;3.90;;
77012;SDS011;67260;53.130;17.982;2023-06-14T11:44:00;12.20;;;4.00;;
77012;SDS011;67260;53.130;17.982;2023-06-14T11:46:27;14.30;;;4.40;;
77012;SDS011;67260;53.130;17.982;2023-06-14T11:48:54;7.80;;;4.10;;
77012;SDS011;67260;53.130;17.982;2023-06-14T11:51:20;10.20;;;3.70;;
77012;SDS011;67260;53.130;17.982;2023-06-14T11:53:47;9.30;;;3.80;;
77012;SDS011;67260;53.130;17.982;2023-06-14T11:56:14;9.80;;;3.80;;
77012;SDS011;67260;53.130;17.982;2023-06-14T11:58:42;9.70;;;4.00;;
77012;SDS011;67260;53.130;17.982;2023-06-14T12:01:09;10.80;;;5.00;;
77012;SDS011;67260;53.130;17.982;2023-06-14T12:03:47;11.50;;;4.70;;
77012;SDS011;67260;53.130;17.982;2023-06-14T12:06:15;6.50;;;4.20;;
77012;SDS011;67260;53.130;17.982;2023-06-14T12:08:42;11.10;;;4.40;;
77012;SDS011;67260;53.130;17.982;2023-06-14T12:11:11;8.30;;;4.30;;
77012;SDS011;67260;53.130;17.982;2023-06-14T12:13:47;11.30;;;4.70;;
77012;SDS011;67260;53.130;17.982;2023-06-14T12:16:16;10.50;;;4.50;;
77012;SDS011;67260;53.130;17.982;2023-06-14T12:18:42;9.50;;;4.40;;
77012;SDS011;67260;53.130;17.982;2023-06-14T12:21:09;8.80;;;4.70;;
77012;SDS011;67260;53.130;17.982;2023-06-14T12:23:42;9.10;;;4.60;;
77012;SDS011;67260;53.130;17.982;2023-06-14T12:26:13;9.40;;;4.60;;
77012;SDS011;67260;53.130;17.982;2023-06-14T12:28:42;12.60;;;4.30;;
77012;SDS011;67260;53.130;17.982;2023-06-14T12:31:13;9.30;;;4.40;;
77012;SDS011;67260;53.130;17.982;2023-06-14T12:33:45;8.20;;;3.60;;
77012;SDS011;67260;53.130;17.982;2023-06-14T12:36:15;7.30;;;3.50;;
77012;SDS011;67260;53.130;17.982;2023-06-14T12:38:48;13.10;;;3.60;;
77012;SDS011;67260;53.130;17.982;2023-06-14T12:41:22;8.70;;;3.40;;
77012;SDS011;67260;53.130;17.982;2023-06-14T12:43:49;7.80;;;3.70;;
77012;SDS011;67260;53.130;17.982;2023-06-14T12:46:17;9.20;;;3.50;;
77012;SDS011;67260;53.130;17.982;2023-06-14T12:48:47;8.10;;;3.80;;
77012;SDS011;67260;53.130;17.982;2023-06-14T12:51:16;8.00;;;3.50;;
77012;SDS011;67260;53.130;17.982;2023-06-14T12:54:06;6.70;;;3.50;;
77012;SDS011;67260;53.130;17.982;2023-06-14T12:56:32;9.60;;;4.00;;
77012;SDS011;67260;53.130;17.982;2023-06-14T12:59:01;8.40;;;3.50;;
77012;SDS011;67260;53.130;17.982;2023-06-14T13:03:54;8.10;;;3.60;;
77012;SDS011;67260;53.130;17.982;2023-06-14T13:06:36;10.50;;;4.00;;
77012;SDS011;67260;53.130;17.982;2023-06-14T13:09:03;9.70;;;3.70;;
77012;SDS011;67260;53.130;17.982;2023-06-14T13:11:29;9.60;;;4.50;;
77012;SDS011;67260;53.130;17.982;2023-06-14T13:14:06;8.00;;;4.00;;
77012;SDS011;67260;53.130;17.982;2023-06-14T13:16:47;7.40;;;4.40;;
77012;SDS011;67260;53.130;17.982;2023-06-14T13:19:13;9.80;;;4.40;;
77012;SDS011;67260;53.130;17.982;2023-06-14T13:21:40;10.50;;;4.10;;
77012;SDS011;67260;53.130;17.982;2023-06-14T13:24:08;8.00;;;4.40;;
77012;SDS011;67260;53.130;17.982;2023-06-14T13:26:36;7.40;;;4.10;;
77012;SDS011;67260;53.130;17.982;2023-06-14T13:29:02;6.40;;;3.70;;
77012;SDS011;67260;53.130;17.982;2023-06-14T13:31:30;7.10;;;4.00;;
77012;SDS011;67260;53.130;17.982;2023-06-14T13:33:57;8.10;;;4.50;;
77012;SDS011;67260;53.130;17.982;2023-06-14T13:36:26;8.60;;;4.20;;
77012;SDS011;67260;53.130;17.982;2023-06-14T13:38:56;7.20;;;4.20;;
77012;SDS011;67260;53.130;17.982;2023-06-14T13:41:37;10.80;;;5.20;;
77012;SDS011;67260;53.130;17.982;2023-06-14T13:44:43;9.10;;;4.70;;
77012;SDS011;67260;53.130;17.982;2023-06-14T13:47:33;9.30;;;4.70;;
77012;SDS011;67260;53.130;17.982;2023-06-14T13:52:26;9.50;;;4.30;;
77012;SDS011;67260;53.130;17.982;2023-06-14T13:54:57;12.00;;;5.00;;
77012;SDS011;67260;53.130;17.982;2023-06-14T13:58:02;9.70;;;3.80;;
77012;SDS011;67260;53.130;17.982;2023-06-14T14:01:10;9.20;;;4.40;;
77012;SDS011;67260;53.130;17.982;2023-06-14T14:07:33;7.70;;;4.10;;
77012;SDS011;67260;53.130;17.982;2023-06-14T14:10:45;10.60;;;4.00;;
77012;SDS011;67260;53.130;17.982;2023-06-14T14:13:15;10.50;;;4.10;;
77012;SDS011;67260;53.130;17.982;2023-06-14T14:15:46;8.60;;;4.10;;
77012;SDS011;67260;53.130;17.982;2023-06-14T14:18:16;7.90;;;4.10;;
77012;SDS011;67260;53.130;17.982;2023-06-14T14:20:44;8.60;;;4.20;;
77012;SDS011;67260;53.130;17.982;2023-06-14T14:23:11;6.70;;;3.80;;
77012;SDS011;67260;53.130;17.982;2023-06-14T14:25:38;7.70;;;3.90;;
77012;SDS011;67260;53.130;17.982;2023-06-14T14:28:07;7.30;;;3.90;;
77012;SDS011;67260;53.130;17.982;2023-06-14T14:30:35;8.40;;;3.90;;
77012;SDS011;67260;53.130;17.982;2023-06-14T14:33:08;8.00;;;3.90;;
77012;SDS011;67260;53.130;17.982;2023-06-14T14:35:37;9.10;;;4.40;;
77012;SDS011;67260;53.130;17.982;2023-06-14T14:38:03;10.50;;;4.50;;
77012;SDS011;67260;53.130;17.982;2023-06-14T14:40:31;9.00;;;4.60;;
77012;SDS011;67260;53.130;17.982;2023-06-14T14:42:57;8.70;;;4.40;;
77012;SDS011;67260;53.130;17.982;2023-06-14T14:45:24;8.20;;;4.20;;
77012;SDS011;67260;53.130;17.982;2023-06-14T14:47:51;8.20;;;4.20;;
77012;SDS011;67260;53.130;17.982;2023-06-14T14:50:17;7.60;;;3.10;;
77012;SDS011;67260;53.130;17.982;2023-06-14T14:55:12;8.30;;;3.30;;
77012;SDS011;67260;53.130;17.982;2023-06-14T14:57:39;7.90;;;3.60;;
77012;SDS011;67260;53.130;17.982;2023-06-14T15:00:09;6.70;;;3.00;;
77012;SDS011;67260;53.130;17.982;2023-06-14T15:02:36;6.50;;;3.10;;
77012;SDS011;67260;53.130;17.982;2023-06-14T15:05:04;7.00;;;2.90;;
77012;SDS011;67260;53.130;17.982;2023-06-14T15:07:35;6.90;;;2.90;;
77012;SDS011;67260;53.130;17.982;2023-06-14T15:10:01;6.30;;;3.20;;
77012;SDS011;67260;53.130;17.982;2023-06-14T15:12:27;6.20;;;3.00;;
77012;SDS011;67260;53.130;17.982;2023-06-14T15:15:04;4.70;;;2.70;;
77012;SDS011;67260;53.130;17.982;2023-06-14T15:17:34;5.10;;;2.90;;
77012;SDS011;67260;53.130;17.982;2023-06-14T15:20:13;8.00;;;2.80;;
77012;SDS011;67260;53.130;17.982;2023-06-14T15:22:41;6.90;;;2.90;;
77012;SDS011;67260;53.130;17.982;2023-06-14T15:25:09;4.70;;;2.50;;
77012;SDS011;67260;53.130;17.982;2023-06-14T15:27:40;6.50;;;2.90;;
77012;SDS011;67260;53.130;17.982;2023-06-14T15:30:07;6.60;;;2.50;;
77012;SDS011;67260;53.130;17.982;2023-06-14T15:32:36;6.60;;;2.70;;
77012;SDS011;67260;53.130;17.982;2023-06-14T15:35:03;5.20;;;2.50;;
77012;SDS011;67260;53.130;17.982;2023-06-14T15:37:31;6.30;;;2.50;;
77012;SDS011;67260;53.130;17.982;2023-06-14T15:40:02;7.00;;;2.70;;
77012;SDS011;67260;53.130;17.982;2023-06-14T15:42:28;4.70;;;2.60;;
77012;SDS011;67260;53.130;17.982;2023-06-14T15:44:54;5.50;;;2.60;;
77012;SDS011;67260;53.130;17.982;2023-06-14T15:47:20;5.20;;;2.60;;
77012;SDS011;67260;53.130;17.982;2023-06-14T15:52:16;4.50;;;2.90;;
77012;SDS011;67260;53.130;17.982;2023-06-14T15:54:42;4.50;;;2.60;;
77012;SDS011;67260;53.130;17.982;2023-06-14T15:57:08;5.30;;;3.10;;
77012;SDS011;67260;53.130;17.982;2023-06-14T15:59:37;5.10;;;2.70;;
77012;SDS011;67260;53.130;17.982;2023-06-14T16:02:03;4.00;;;2.50;;
77012;SDS011;67260;53.130;17.982;2023-06-14T16:04:33;5.10;;;3.00;;
77012;SDS011;67260;53.130;17.982;2023-06-14T16:09:31;5.70;;;2.40;;
77012;SDS011;67260;53.130;17.982;2023-06-14T16:11:58;7.50;;;2.50;;
77012;SDS011;67260;53.130;17.982;2023-06-14T16:14:24;7.50;;;2.80;;
77012;SDS011;67260;53.130;17.982;2023-06-14T16:16:54;6.30;;;2.80;;
77012;SDS011;67260;53.130;17.982;2023-06-14T16:19:20;7.90;;;3.20;;
77012;SDS011;67260;53.130;17.982;2023-06-14T16:21:46;6.20;;;3.10;;
77012;SDS011;67260;53.130;17.982;2023-06-14T16:24:13;6.20;;;3.30;;
77012;SDS011;67260;53.130;17.982;2023-06-14T16:26:40;7.40;;;3.20;;
77012;SDS011;67260;53.130;17.982;2023-06-14T16:29:07;5.20;;;2.60;;
77012;SDS011;67260;53.130;17.982;2023-06-14T16:31:33;6.50;;;3.30;;
77012;SDS011;67260;53.130;17.982;2023-06-14T16:33:59;5.50;;;3.80;;
77012;SDS011;67260;53.130;17.982;2023-06-14T16:36:35;5.40;;;3.00;;
77012;SDS011;67260;53.130;17.982;2023-06-14T16:39:08;6.30;;;3.50;;